Aérodrome :
LOGIN :

S'inscrire | Disclaimer

   EN    FR    IT 

 










Légende :    VFR   VFR Marginal   IFR   IFR Intensif   IFR Très Intensif
Visi : 
Plafond : 
>= 8 km
>= 3000ft
5 à 8 km
1000 à 3000 ft
1500m à 5 km
500 à 1000 ft
800 à 1500m
200 à 500 ft
< 800m
< 200 ft
Symboles :   Orages  Brouillard  Fortes neiges  Fortes précipitations  Vent > 20 kt
SIGMETs :   Divers  Orages  Givrage  Turbulence  Onde Orograph.  Cendres Volcan.







- Altitude de l'aérodrome : 102 ft
- Code IATA : EXT
- Voir les cartes d'approche


EGTE - Exeter

DERNIER METAR :
  • 161120Z 21012KT 9999 FEW025 SCT040 10/07 Q1004

METARs EXPIRÉS :
  • 161050Z 21009KT 9999 FEW025 SCT040 09/08 Q1005
  • 161020Z 20010KT 9999 VCSH FEW010 SCT035 09/07 Q1005
  • 160950Z 21009KT 9999 VCSH FEW010 SCT037 10/08 Q1006
  • 160920Z 21007KT 9999 FEW008 SCT030 09/08 Q1006
  • 160850Z 22005KT 190V250 9999 6000E VCSH FEW008 BKN030 08/07 Q1006

TAF TAF EGTE
Valide du 16 à 12h jusqu'au 16 à 21h UTC


161108Z 1612/1621 20012KT 9999 SCT025
BECMG 1612/1615 28009KT
TEMPO 1612/1615 7000 -RA BKN012
PROB30
TEMPO 1612/1615 4000 RA BKN006
PROB30
TEMPO 1615/1621 7000 SHRA BKN014
Pas de NOTAMs connus pour ce terrain.



MET'MAP, la Météo Aéronautique d'un coup d'oeil ! - Copyright ORBIFLY Décembre 2007 - Disclaimer

ORBIFLY MET'MAP TEAM :

Programmation & Développement : Alexandra Zaïnal
Conception & Développement : Baudouin d'Aumeries
Co-Programmation & Développement : Marc-Olivier Méhu
Soutien technique & logistique : Manuel Goepfert

Contact : metmap@orbifly.com




SOURCES & CREDITS :

   NOAA